sensor_id;sensor_type;location;lat;lon;timestamp;pressure;altitude;pressure_sealevel;temperature;humidity
74561;BME280;62979;55.720;37.606;2023-10-31T00:01:19;99000.28;;;9.62;75.97
74561;BME280;62979;55.720;37.606;2023-10-31T00:03:46;99011.53;;;9.64;75.79
74561;BME280;62979;55.720;37.606;2023-10-31T00:06:15;99001.84;;;9.68;75.89
74561;BME280;62979;55.720;37.606;2023-10-31T00:08:42;99002.91;;;9.62;75.98
74561;BME280;62979;55.720;37.606;2023-10-31T00:11:09;99009.91;;;9.60;75.99
74561;BME280;62979;55.720;37.606;2023-10-31T00:13:36;99009.75;;;9.66;75.84
74561;BME280;62979;55.720;37.606;2023-10-31T00:16:05;99021.88;;;9.67;75.71
74561;BME280;62979;55.720;37.606;2023-10-31T00:18:32;99016.75;;;9.64;75.57
74561;BME280;62979;55.720;37.606;2023-10-31T00:20:59;99020.22;;;9.64;76.02
74561;BME280;62979;55.720;37.606;2023-10-31T00:23:28;99009.06;;;9.59;75.76
74561;BME280;62979;55.720;37.606;2023-10-31T00:25:55;99035.78;;;9.68;75.75
74561;BME280;62979;55.720;37.606;2023-10-31T00:28:22;99015.03;;;9.63;75.83
74561;BME280;62979;55.720;37.606;2023-10-31T00:30:49;99027.22;;;9.64;75.72
74561;BME280;62979;55.720;37.606;2023-10-31T00:33:16;99034.13;;;9.65;75.60
74561;BME280;62979;55.720;37.606;2023-10-31T00:35:43;99021.97;;;9.64;75.52
74561;BME280;62979;55.720;37.606;2023-10-31T00:38:10;99042.75;;;9.67;75.32
74561;BME280;62979;55.720;37.606;2023-10-31T00:40:38;99035.88;;;9.64;75.22
74561;BME280;62979;55.720;37.606;2023-10-31T00:43:05;99042.75;;;9.67;75.26
74561;BME280;62979;55.720;37.606;2023-10-31T00:45:32;99044.69;;;9.60;75.06
74561;BME280;62979;55.720;37.606;2023-10-31T00:47:59;99059.38;;;9.64;75.00
74561;BME280;62979;55.720;37.606;2023-10-31T00:50:26;99050.63;;;9.65;75.19
74561;BME280;62979;55.720;37.606;2023-10-31T00:52:54;99065.38;;;9.68;75.17
74561;BME280;62979;55.720;37.606;2023-10-31T00:55:21;99056.63;;;9.69;75.11
74561;BME280;62979;55.720;37.606;2023-10-31T00:57:49;99068.78;;;9.70;75.02
74561;BME280;62979;55.720;37.606;2023-10-31T01:00:17;99073.03;;;9.73;74.95
74561;BME280;62979;55.720;37.606;2023-10-31T01:02:44;99069.78;;;9.66;74.97
74561;BME280;62979;55.720;37.606;2023-10-31T01:05:11;99086.25;;;9.68;75.21
74561;BME280;62979;55.720;37.606;2023-10-31T01:07:39;99088.91;;;9.67;74.99
74561;BME280;62979;55.720;37.606;2023-10-31T01:10:07;99075.88;;;9.65;74.96
74561;BME280;62979;55.720;37.606;2023-10-31T01:12:36;99089.75;;;9.67;75.26
74561;BME280;62979;55.720;37.606;2023-10-31T01:15:05;99086.34;;;9.65;75.16
74561;BME280;62979;55.720;37.606;2023-10-31T01:17:33;99081.22;;;9.62;75.38
74561;BME280;62979;55.720;37.606;2023-10-31T01:20:00;99079.53;;;9.61;75.47
74561;BME280;62979;55.720;37.606;2023-10-31T01:22:27;99082.91;;;9.63;75.12
74561;BME280;62979;55.720;37.606;2023-10-31T01:24:54;99100.19;;;9.67;75.04
74561;BME280;62979;55.720;37.606;2023-10-31T01:27:21;99108.13;;;9.64;74.99
74561;BME280;62979;55.720;37.606;2023-10-31T01:29:48;99093.44;;;9.60;75.27
74561;BME280;62979;55.720;37.606;2023-10-31T01:32:17;99105.53;;;9.64;75.25
74561;BME280;62979;55.720;37.606;2023-10-31T01:34:44;99110.88;;;9.59;75.26
74561;BME280;62979;55.720;37.606;2023-10-31T01:37:11;99110.03;;;9.59;75.50
74561;BME280;62979;55.720;37.606;2023-10-31T01:39:40;99111.81;;;9.57;75.37
74561;BME280;62979;55.720;37.606;2023-10-31T01:42:07;99116.13;;;9.58;75.33
74561;BME280;62979;55.720;37.606;2023-10-31T01:44:34;99121.22;;;9.62;75.23
74561;BME280;62979;55.720;37.606;2023-10-31T01:47:01;99121.19;;;9.64;75.45
74561;BME280;62979;55.720;37.606;2023-10-31T01:49:30;99128.91;;;9.67;75.38
74561;BME280;62979;55.720;37.606;2023-10-31T01:51:58;99123.84;;;9.62;75.48
74561;BME280;62979;55.720;37.606;2023-10-31T01:54:26;99140.44;;;9.60;75.42
74561;BME280;62979;55.720;37.606;2023-10-31T01:56:54;99140.56;;;9.55;75.69
74561;BME280;62979;55.720;37.606;2023-10-31T01:59:23;99140.66;;;9.52;75.81
74561;BME280;62979;55.720;37.606;2023-10-31T02:01:51;99140.81;;;9.48;76.16
74561;BME280;62979;55.720;37.606;2023-10-31T02:04:19;99140.91;;;9.45;76.26
74561;BME280;62979;55.720;37.606;2023-10-31T02:06:47;99147.06;;;9.42;76.34
74561;BME280;62979;55.720;37.606;2023-10-31T02:09:14;99154.91;;;9.40;76.46
74561;BME280;62979;55.720;37.606;2023-10-31T02:11:41;99150.63;;;9.39;76.50
74561;BME280;62979;55.720;37.606;2023-10-31T02:14:08;99159.38;;;9.37;76.42
74561;BME280;62979;55.720;37.606;2023-10-31T02:16:35;99162.81;;;9.39;76.61
74561;BME280;62979;55.720;37.606;2023-10-31T02:19:03;99158.53;;;9.36;76.40
74561;BME280;62979;55.720;37.606;2023-10-31T02:21:32;99175.78;;;9.42;76.26
74561;BME280;62979;55.720;37.606;2023-10-31T02:24:02;99173.97;;;9.44;76.18
74561;BME280;62979;55.720;37.606;2023-10-31T02:26:30;99164.63;;;9.35;76.66
74561;BME280;62979;55.720;37.606;2023-10-31T02:28:57;99181.13;;;9.37;76.30
74561;BME280;62979;55.720;37.606;2023-10-31T02:31:24;99168.22;;;9.31;76.22
74561;BME280;62979;55.720;37.606;2023-10-31T02:33:52;99159.63;;;9.28;76.46
74561;BME280;62979;55.720;37.606;2023-10-31T02:36:19;99169.00;;;9.35;76.50
74561;BME280;62979;55.720;37.606;2023-10-31T02:38:47;99167.38;;;9.31;76.42
74561;BME280;62979;55.720;37.606;2023-10-31T02:41:16;99179.44;;;9.35;76.29
74561;BME280;62979;55.720;37.606;2023-10-31T02:43:43;99195.00;;;9.38;76.51
74561;BME280;62979;55.720;37.606;2023-10-31T02:46:10;99184.63;;;9.36;76.37
74561;BME280;62979;55.720;37.606;2023-10-31T02:48:38;99188.34;;;9.28;76.57
74561;BME280;62979;55.720;37.606;2023-10-31T02:51:06;99176.16;;;9.28;76.30
74561;BME280;62979;55.720;37.606;2023-10-31T02:53:34;99187.38;;;9.32;76.41
74561;BME280;62979;55.720;37.606;2023-10-31T02:56:02;99205.31;;;9.42;76.50
74561;BME280;62979;55.720;37.606;2023-10-31T02:58:31;99198.34;;;9.43;76.28
74561;BME280;62979;55.720;37.606;2023-10-31T03:00:58;99208.66;;;9.48;76.42
74561;BME280;62979;55.720;37.606;2023-10-31T03:03:26;99211.28;;;9.48;76.38
74561;BME280;62979;55.720;37.606;2023-10-31T03:05:53;99223.38;;;9.50;76.16
74561;BME280;62979;55.720;37.606;2023-10-31T03:08:20;99218.38;;;9.42;76.19
74561;BME280;62979;55.720;37.606;2023-10-31T03:10:47;99215.63;;;9.49;76.18
74561;BME280;62979;55.720;37.606;2023-10-31T03:13:17;99225.22;;;9.47;76.22
74561;BME280;62979;55.720;37.606;2023-10-31T03:15:47;99226.94;;;9.48;76.19
74561;BME280;62979;55.720;37.606;2023-10-31T03:18:14;99224.22;;;9.51;76.05
74561;BME280;62979;55.720;37.606;2023-10-31T03:20:43;99221.59;;;9.52;76.24
74561;BME280;62979;55.720;37.606;2023-10-31T03:23:12;99220.66;;;9.55;76.19
74561;BME280;62979;55.720;37.606;2023-10-31T03:25:39;99225.88;;;9.55;76.03
74561;BME280;62979;55.720;37.606;2023-10-31T03:28:17;99229.38;;;9.54;76.19
74561;BME280;62979;55.720;37.606;2023-10-31T03:30:47;99231.22;;;9.50;76.10
74561;BME280;62979;55.720;37.606;2023-10-31T03:33:14;99243.31;;;9.53;75.81
74561;BME280;62979;55.720;37.606;2023-10-31T03:35:44;99237.25;;;9.52;75.99
74561;BME280;62979;55.720;37.606;2023-10-31T03:38:11;99232.06;;;9.51;75.87
74561;BME280;62979;55.720;37.606;2023-10-31T03:40:38;99230.38;;;9.48;75.77
74561;BME280;62979;55.720;37.606;2023-10-31T03:43:05;99245.25;;;9.46;75.83
74561;BME280;62979;55.720;37.606;2023-10-31T03:45:32;99246.13;;;9.47;75.83
74561;BME280;62979;55.720;37.606;2023-10-31T03:48:00;99252.16;;;9.49;75.94
74561;BME280;62979;55.720;37.606;2023-10-31T03:50:27;99255.53;;;9.52;75.72
74561;BME280;62979;55.720;37.606;2023-10-31T03:52:54;99232.56;;;9.32;75.84
74561;BME280;62979;55.720;37.606;2023-10-31T03:55:21;99246.25;;;9.40;75.79
74561;BME280;62979;55.720;37.606;2023-10-31T03:57:48;99276.44;;;9.51;75.89
74561;BME280;62979;55.720;37.606;2023-10-31T04:00:15;99259.06;;;9.50;75.85
74561;BME280;62979;55.720;37.606;2023-10-31T04:02:43;99264.09;;;9.56;75.63
74561;BME280;62979;55.720;37.606;2023-10-31T04:05:11;99274.41;;;9.62;75.28
74561;BME280;62979;55.720;37.606;2023-10-31T04:07:38;99276.19;;;9.60;75.25
74561;BME280;62979;55.720;37.606;2023-10-31T04:10:06;99271.81;;;9.60;75.40
74561;BME280;62979;55.720;37.606;2023-10-31T04:12:33;99279.66;;;9.60;75.27
74561;BME280;62979;55.720;37.606;2023-10-31T04:15:01;99271.06;;;9.57;75.19
74561;BME280;62979;55.720;37.606;2023-10-31T04:17:28;99288.28;;;9.64;75.13
74561;BME280;62979;55.720;37.606;2023-10-31T04:19:55;99291.72;;;9.66;75.19
74561;BME280;62979;55.720;37.606;2023-10-31T04:22:23;99291.03;;;9.58;75.25
74561;BME280;62979;55.720;37.606;2023-10-31T04:24:50;99301.16;;;9.70;75.34
74561;BME280;62979;55.720;37.606;2023-10-31T04:27:17;99300.25;;;9.71;75.20
74561;BME280;62979;55.720;37.606;2023-10-31T04:29:44;99300.25;;;9.71;75.28
74561;BME280;62979;55.720;37.606;2023-10-31T04:32:11;99303.81;;;9.69;75.23
74561;BME280;62979;55.720;37.606;2023-10-31T04:34:38;99295.25;;;9.63;75.14
74561;BME280;62979;55.720;37.606;2023-10-31T04:37:05;99299.59;;;9.63;75.11
74561;BME280;62979;55.720;37.606;2023-10-31T04:39:34;99295.28;;;9.62;75.35
74561;BME280;62979;55.720;37.606;2023-10-31T04:42:01;99308.38;;;9.60;75.23
74561;BME280;62979;55.720;37.606;2023-10-31T04:44:28;99310.91;;;9.63;75.16
74561;BME280;62979;55.720;37.606;2023-10-31T04:46:55;99311.72;;;9.65;75.16
74561;BME280;62979;55.720;37.606;2023-10-31T04:49:21;99312.50;;;9.69;75.00
74561;BME280;62979;55.720;37.606;2023-10-31T04:51:48;99318.44;;;9.74;74.84
74561;BME280;62979;55.720;37.606;2023-10-31T04:54:15;99327.94;;;9.78;74.84
74561;BME280;62979;55.720;37.606;2023-10-31T04:56:44;99321.91;;;9.75;74.65
74561;BME280;62979;55.720;37.606;2023-10-31T04:59:10;99322.53;;;9.84;74.43
74561;BME280;62979;55.720;37.606;2023-10-31T05:01:37;99327.63;;;9.89;74.26
74561;BME280;62979;55.720;37.606;2023-10-31T05:04:04;99332.81;;;9.91;74.27
74561;BME280;62979;55.720;37.606;2023-10-31T05:06:31;99337.03;;;9.95;74.01
74561;BME280;62979;55.720;37.606;2023-10-31T05:08:58;99328.44;;;9.91;74.39
74561;BME280;62979;55.720;37.606;2023-10-31T05:11:25;99332.63;;;9.97;74.61
74561;BME280;62979;55.720;37.606;2023-10-31T05:13:53;99334.22;;;10.02;74.54
74561;BME280;62979;55.720;37.606;2023-10-31T05:16:20;99341.91;;;10.07;74.36
74561;BME280;62979;55.720;37.606;2023-10-31T05:18:47;99341.78;;;10.12;74.47
74561;BME280;62979;55.720;37.606;2023-10-31T05:21:18;99332.28;;;10.09;74.11
74561;BME280;62979;55.720;37.606;2023-10-31T05:23:46;99343.38;;;10.17;74.10
74561;BME280;62979;55.720;37.606;2023-10-31T05:26:13;99342.38;;;10.21;73.97
74561;BME280;62979;55.720;37.606;2023-10-31T05:28:40;99330.22;;;10.20;74.07
74561;BME280;62979;55.720;37.606;2023-10-31T05:31:09;99350.00;;;10.31;73.64
74561;BME280;62979;55.720;37.606;2023-10-31T05:33:37;99349.91;;;10.34;73.65
74561;BME280;62979;55.720;37.606;2023-10-31T05:36:05;99355.06;;;10.37;73.58
74561;BME280;62979;55.720;37.606;2023-10-31T05:38:32;99366.16;;;10.43;73.39
74561;BME280;62979;55.720;37.606;2023-10-31T05:40:59;99366.16;;;10.43;73.19
74561;BME280;62979;55.720;37.606;2023-10-31T05:43:26;99371.19;;;10.51;73.05
74561;BME280;62979;55.720;37.606;2023-10-31T05:45:53;99385.94;;;10.54;73.12
74561;BME280;62979;55.720;37.606;2023-10-31T05:48:21;99394.63;;;10.54;72.80
74561;BME280;62979;55.720;37.606;2023-10-31T05:50:48;99387.63;;;10.55;72.52
74561;BME280;62979;55.720;37.606;2023-10-31T05:53:15;99385.94;;;10.54;72.45
74561;BME280;62979;55.720;37.606;2023-10-31T05:55:42;99402.22;;;10.63;72.40
74561;BME280;62979;55.720;37.606;2023-10-31T05:58:09;99400.44;;;10.64;72.13
74561;BME280;62979;55.720;37.606;2023-10-31T06:00:37;99404.84;;;10.63;72.04
74561;BME280;62979;55.720;37.606;2023-10-31T06:03:04;99409.91;;;10.68;72.10
74561;BME280;62979;55.720;37.606;2023-10-31T06:05:32;99401.16;;;10.69;72.53
74561;BME280;62979;55.720;37.606;2023-10-31T06:08:00;99414.00;;;10.77;72.27
74561;BME280;62979;55.720;37.606;2023-10-31T06:10:27;99417.41;;;10.80;72.03
74561;BME280;62979;55.720;37.606;2023-10-31T06:12:54;99432.91;;;10.86;71.52
74561;BME280;62979;55.720;37.606;2023-10-31T06:15:21;99439.06;;;10.85;71.85
74561;BME280;62979;55.720;37.606;2023-10-31T06:17:47;99438.09;;;10.88;71.87
74561;BME280;62979;55.720;37.606;2023-10-31T06:20:14;99436.50;;;10.82;71.90
74561;BME280;62979;55.720;37.606;2023-10-31T06:22:43;99436.38;;;10.87;72.37
74561;BME280;62979;55.720;37.606;2023-10-31T06:25:09;99436.25;;;10.91;72.21
74561;BME280;62979;55.720;37.606;2023-10-31T06:27:36;99434.41;;;10.95;72.20
74561;BME280;62979;55.720;37.606;2023-10-31T06:30:04;99430.59;;;11.05;72.14
74561;BME280;62979;55.720;37.606;2023-10-31T06:32:32;99430.47;;;11.10;71.77
74561;BME280;62979;55.720;37.606;2023-10-31T06:34:59;99430.50;;;11.08;71.71
74561;BME280;62979;55.720;37.606;2023-10-31T06:37:25;99427.03;;;11.08;71.89
74561;BME280;62979;55.720;37.606;2023-10-31T06:39:54;99434.75;;;11.12;71.78
74561;BME280;62979;55.720;37.606;2023-10-31T06:42:20;99446.03;;;11.14;71.78
74561;BME280;62979;55.720;37.606;2023-10-31T06:44:47;99438.88;;;11.20;72.33
74561;BME280;62979;55.720;37.606;2023-10-31T06:47:14;99446.63;;;11.23;71.50
74561;BME280;62979;55.720;37.606;2023-10-31T06:49:41;99438.63;;;11.27;71.20
74561;BME280;62979;55.720;37.606;2023-10-31T06:52:08;99448.97;;;11.32;71.51
74561;BME280;62979;55.720;37.606;2023-10-31T06:54:35;99444.63;;;11.31;71.03
74561;BME280;62979;55.720;37.606;2023-10-31T06:57:03;99446.34;;;11.32;71.10
74561;BME280;62979;55.720;37.606;2023-10-31T06:59:30;99457.72;;;11.31;71.16
74561;BME280;62979;55.720;37.606;2023-10-31T07:01:57;99460.16;;;11.37;71.28
74561;BME280;62979;55.720;37.606;2023-10-31T07:04:24;99466.09;;;11.42;70.99
74561;BME280;62979;55.720;37.606;2023-10-31T07:06:51;99475.50;;;11.48;70.64
74561;BME280;62979;55.720;37.606;2023-10-31T07:09:22;99471.94;;;11.50;70.68
74561;BME280;62979;55.720;37.606;2023-10-31T07:11:49;99484.13;;;11.51;70.49
74561;BME280;62979;55.720;37.606;2023-10-31T07:14:17;99484.97;;;11.53;70.49
74561;BME280;62979;55.720;37.606;2023-10-31T07:16:44;99489.28;;;11.54;70.51
74561;BME280;62979;55.720;37.606;2023-10-31T07:19:11;99492.59;;;11.60;70.64
74561;BME280;62979;55.720;37.606;2023-10-31T07:21:38;99491.53;;;11.65;70.33
74561;BME280;62979;55.720;37.606;2023-10-31T07:24:06;99498.53;;;11.65;70.06
74561;BME280;62979;55.720;37.606;2023-10-31T07:26:34;99492.56;;;11.61;70.38
74561;BME280;62979;55.720;37.606;2023-10-31T07:29:01;99519.50;;;11.65;70.20
74561;BME280;62979;55.720;37.606;2023-10-31T07:31:29;99512.44;;;11.67;70.14
74561;BME280;62979;55.720;37.606;2023-10-31T07:33:56;99513.50;;;11.61;69.98
74561;BME280;62979;55.720;37.606;2023-10-31T07:36:23;99527.63;;;11.55;70.07
74561;BME280;62979;55.720;37.606;2023-10-31T07:38:50;99519.88;;;11.52;70.30
74561;BME280;62979;55.720;37.606;2023-10-31T07:41:17;99515.97;;;11.38;70.67
74561;BME280;62979;55.720;37.606;2023-10-31T07:43:44;99519.72;;;11.29;71.23
74561;BME280;62979;55.720;37.606;2023-10-31T07:46:11;99503.66;;;11.11;71.79
74561;BME280;62979;55.720;37.606;2023-10-31T07:48:39;99531.00;;;11.31;71.75
74561;BME280;62979;55.720;37.606;2023-10-31T07:51:06;99544.75;;;11.39;71.61
74561;BME280;62979;55.720;37.606;2023-10-31T07:53:33;99541.25;;;11.39;71.66
74561;BME280;62979;55.720;37.606;2023-10-31T07:56:00;99530.72;;;11.42;71.70
74561;BME280;62979;55.720;37.606;2023-10-31T07:58:27;99526.53;;;11.63;71.28
74561;BME280;62979;55.720;37.606;2023-10-31T08:00:54;99533.69;;;11.86;70.86
74561;BME280;62979;55.720;37.606;2023-10-31T08:03:21;99534.06;;;12.02;70.63
74561;BME280;62979;55.720;37.606;2023-10-31T08:05:49;99541.72;;;12.08;69.80
74561;BME280;62979;55.720;37.606;2023-10-31T08:08:16;99541.03;;;12.03;69.43
74561;BME280;62979;55.720;37.606;2023-10-31T08:10:43;99548.91;;;12.03;69.58
74561;BME280;62979;55.720;37.606;2023-10-31T08:13:10;99551.44;;;12.04;69.52
74561;BME280;62979;55.720;37.606;2023-10-31T08:15:37;99548.78;;;12.06;69.43
74561;BME280;62979;55.720;37.606;2023-10-31T08:18:04;99542.03;;;11.98;69.35
74561;BME280;62979;55.720;37.606;2023-10-31T08:20:31;99545.41;;;12.02;69.52
74561;BME280;62979;55.720;37.606;2023-10-31T08:23:00;99536.50;;;12.08;69.51
74561;BME280;62979;55.720;37.606;2023-10-31T08:25:27;99543.28;;;12.13;69.09
74561;BME280;62979;55.720;37.606;2023-10-31T08:27:54;99539.84;;;12.11;68.92
74561;BME280;62979;55.720;37.606;2023-10-31T08:30:22;99544.13;;;12.14;69.22
74561;BME280;62979;55.720;37.606;2023-10-31T08:32:49;99536.50;;;12.08;68.77
74561;BME280;62979;55.720;37.606;2023-10-31T08:35:16;99551.94;;;12.17;69.00
74561;BME280;62979;55.720;37.606;2023-10-31T08:37:42;99544.06;;;12.17;68.93
74561;BME280;62979;55.720;37.606;2023-10-31T08:40:11;99532.66;;;12.18;68.52
74561;BME280;62979;55.720;37.606;2023-10-31T08:42:38;99549.47;;;12.37;68.25
74561;BME280;62979;55.720;37.606;2023-10-31T08:45:07;99549.25;;;12.43;68.13
74561;BME280;62979;55.720;37.606;2023-10-31T08:47:35;99546.97;;;12.34;67.66
74561;BME280;62979;55.720;37.606;2023-10-31T08:50:02;99545.56;;;12.24;67.95
74561;BME280;62979;55.720;37.606;2023-10-31T08:52:29;99555.94;;;12.27;67.75
74561;BME280;62979;55.720;37.606;2023-10-31T08:54:56;99554.44;;;12.20;67.98
74561;BME280;62979;55.720;37.606;2023-10-31T08:57:24;99549.09;;;12.23;67.67
74561;BME280;62979;55.720;37.606;2023-10-31T08:59:51;99560.16;;;12.31;67.69
74561;BME280;62979;55.720;37.606;2023-10-31T09:02:18;99548.97;;;12.26;67.51
74561;BME280;62979;55.720;37.606;2023-10-31T09:04:45;99549.88;;;12.25;67.76
74561;BME280;62979;55.720;37.606;2023-10-31T09:07:13;99544.50;;;12.30;68.02
74561;BME280;62979;55.720;37.606;2023-10-31T09:09:41;99537.16;;;12.39;67.01
74561;BME280;62979;55.720;37.606;2023-10-31T09:12:08;99542.16;;;12.47;66.95
74561;BME280;62979;55.720;37.606;2023-10-31T09:14:36;99554.03;;;12.57;66.74
74561;BME280;62979;55.720;37.606;2023-10-31T09:17:03;99551.03;;;12.68;67.06
74561;BME280;62979;55.720;37.606;2023-10-31T09:19:30;99531.47;;;12.77;66.99
74561;BME280;62979;55.720;37.606;2023-10-31T09:21:57;99559.25;;;13.07;66.98
74561;BME280;62979;55.720;37.606;2023-10-31T09:24:24;99547.97;;;13.29;65.47
74561;BME280;62979;55.720;37.606;2023-10-31T09:26:51;99567.16;;;13.53;64.14
74561;BME280;62979;55.720;37.606;2023-10-31T09:29:18;99566.47;;;13.72;63.42
74561;BME280;62979;55.720;37.606;2023-10-31T09:31:46;99563.88;;;13.70;63.19
74561;BME280;62979;55.720;37.606;2023-10-31T09:34:13;99550.63;;;13.51;63.26
74561;BME280;62979;55.720;37.606;2023-10-31T09:36:42;99561.22;;;13.48;63.52
74561;BME280;62979;55.720;37.606;2023-10-31T09:39:08;99552.97;;;13.35;64.00
74561;BME280;62979;55.720;37.606;2023-10-31T09:41:36;99543.75;;;13.23;64.09
74561;BME280;62979;55.720;37.606;2023-10-31T09:44:03;99544.47;;;13.28;64.27
74561;BME280;62979;55.720;37.606;2023-10-31T09:46:30;99550.41;;;13.34;64.31
74561;BME280;62979;55.720;37.606;2023-10-31T09:48:59;99540.72;;;13.58;64.20
74561;BME280;62979;55.720;37.606;2023-10-31T09:51:27;99527.97;;;13.70;63.69
74561;BME280;62979;55.720;37.606;2023-10-31T09:53:54;99543.88;;;14.10;62.38
74561;BME280;62979;55.720;37.606;2023-10-31T09:56:24;99541.78;;;14.61;61.04
74561;BME280;62979;55.720;37.606;2023-10-31T09:58:52;99553.00;;;14.44;59.93
74561;BME280;62979;55.720;37.606;2023-10-31T10:01:19;99551.47;;;14.38;60.56
74561;BME280;62979;55.720;37.606;2023-10-31T10:03:45;99544.41;;;14.39;61.37
74561;BME280;62979;55.720;37.606;2023-10-31T10:06:14;99552.25;;;14.40;61.33
74561;BME280;62979;55.720;37.606;2023-10-31T10:08:41;99549.69;;;14.39;62.43
74561;BME280;62979;55.720;37.606;2023-10-31T10:11:09;99558.69;;;14.33;61.44
74561;BME280;62979;55.720;37.606;2023-10-31T10:13:35;99561.44;;;13.87;61.13
74561;BME280;62979;55.720;37.606;2023-10-31T10:16:03;99555.94;;;13.72;61.46
74561;BME280;62979;55.720;37.606;2023-10-31T10:18:32;99557.91;;;13.66;61.58
74561;BME280;62979;55.720;37.606;2023-10-31T10:21:02;99566.75;;;13.64;61.23
74561;BME280;62979;55.720;37.606;2023-10-31T10:23:32;99562.72;;;13.55;61.29
74561;BME280;62979;55.720;37.606;2023-10-31T10:26:00;99561.31;;;13.46;61.53
74561;BME280;62979;55.720;37.606;2023-10-31T10:28:28;99550.41;;;13.34;61.66
74561;BME280;62979;55.720;37.606;2023-10-31T10:30:58;99529.16;;;13.40;63.12
74561;BME280;62979;55.720;37.606;2023-10-31T10:33:25;99537.09;;;13.38;61.94
74561;BME280;62979;55.720;37.606;2023-10-31T10:35:54;99552.50;;;13.47;64.38
74561;BME280;62979;55.720;37.606;2023-10-31T10:38:22;99541.19;;;13.45;62.29
74561;BME280;62979;55.720;37.606;2023-10-31T10:40:53;99541.16;;;13.69;63.66
74561;BME280;62979;55.720;37.606;2023-10-31T10:43:24;99539.94;;;13.78;63.61
74561;BME280;62979;55.720;37.606;2023-10-31T10:45:54;99524.19;;;13.78;62.12
74561;BME280;62979;55.720;37.606;2023-10-31T10:48:23;99516.41;;;13.75;62.48
74561;BME280;62979;55.720;37.606;2023-10-31T10:50:59;99520.19;;;13.67;62.45
74561;BME280;62979;55.720;37.606;2023-10-31T10:53:35;99524.78;;;13.62;62.72
74561;BME280;62979;55.720;37.606;2023-10-31T10:56:19;99526.19;;;13.49;62.21
74561;BME280;62979;55.720;37.606;2023-10-31T10:58:55;99522.88;;;13.44;63.15
74561;BME280;62979;55.720;37.606;2023-10-31T11:01:29;99518.53;;;13.43;62.22
74561;BME280;62979;55.720;37.606;2023-10-31T11:03:59;99539.06;;;13.55;62.36
74561;BME280;62979;55.720;37.606;2023-10-31T11:06:28;99534.13;;;13.47;62.54
74561;BME280;62979;55.720;37.606;2023-10-31T11:08:57;99534.88;;;13.51;62.98
74561;BME280;62979;55.720;37.606;2023-10-31T11:11:26;99531.34;;;13.51;62.53
74561;BME280;62979;55.720;37.606;2023-10-31T11:13:55;99547.63;;;13.60;62.03
74561;BME280;62979;55.720;37.606;2023-10-31T11:16:34;99539.69;;;13.62;61.78
74561;BME280;62979;55.720;37.606;2023-10-31T11:19:07;99529.53;;;13.53;62.95
74561;BME280;62979;55.720;37.606;2023-10-31T11:21:35;99530.16;;;13.59;62.47
74561;BME280;62979;55.720;37.606;2023-10-31T11:24:03;99526.19;;;13.49;62.58
74561;BME280;62979;55.720;37.606;2023-10-31T11:26:32;99524.75;;;13.40;62.21
74561;BME280;62979;55.720;37.606;2023-10-31T11:29:05;99542.78;;;13.49;62.46
74561;BME280;62979;55.720;37.606;2023-10-31T11:31:34;99530.00;;;13.40;62.19
74561;BME280;62979;55.720;37.606;2023-10-31T11:34:06;99525.59;;;13.41;62.68
74561;BME280;62979;55.720;37.606;2023-10-31T11:36:32;99521.81;;;13.48;62.42
74561;BME280;62979;55.720;37.606;2023-10-31T11:39:11;99534.31;;;13.65;61.83
74561;BME280;62979;55.720;37.606;2023-10-31T11:41:45;99522.09;;;13.64;61.92
74561;BME280;62979;55.720;37.606;2023-10-31T11:44:15;99528.06;;;13.67;62.08
74561;BME280;62979;55.720;37.606;2023-10-31T11:46:43;99523.47;;;13.73;61.39
74561;BME280;62979;55.720;37.606;2023-10-31T11:49:14;99523.06;;;13.83;61.67
74561;BME280;62979;55.720;37.606;2023-10-31T11:51:41;99533.22;;;13.93;61.45
74561;BME280;62979;55.720;37.606;2023-10-31T11:54:12;99524.03;;;14.03;61.69
74561;BME280;62979;55.720;37.606;2023-10-31T11:56:41;99524.13;;;14.22;61.53
74561;BME280;62979;55.720;37.606;2023-10-31T11:59:08;99518.19;;;14.37;61.21
74561;BME280;62979;55.720;37.606;2023-10-31T12:01:44;99526.75;;;14.83;60.16
74561;BME280;62979;55.720;37.606;2023-10-31T12:04:26;99523.22;;;15.22;58.53
74561;BME280;62979;55.720;37.606;2023-10-31T12:06:59;99527.34;;;15.47;58.09
74561;BME280;62979;55.720;37.606;2023-10-31T12:09:26;99529.66;;;15.53;57.40
74561;BME280;62979;55.720;37.606;2023-10-31T12:11:54;99517.53;;;15.68;56.71
74561;BME280;62979;55.720;37.606;2023-10-31T12:14:21;99511.94;;;15.75;56.77
74561;BME280;62979;55.720;37.606;2023-10-31T12:16:48;99524.81;;;15.81;56.53
74561;BME280;62979;55.720;37.606;2023-10-31T12:19:15;99501.88;;;15.65;56.58
74561;BME280;62979;55.720;37.606;2023-10-31T12:21:43;99522.72;;;15.71;56.59
74561;BME280;62979;55.720;37.606;2023-10-31T12:24:14;99521.56;;;15.76;56.38
74561;BME280;62979;55.720;37.606;2023-10-31T12:26:42;99521.75;;;15.91;55.60
74561;BME280;62979;55.720;37.606;2023-10-31T12:29:12;99526.97;;;16.10;55.43
74561;BME280;62979;55.720;37.606;2023-10-31T12:31:44;99526.88;;;16.29;55.18
74561;BME280;62979;55.720;37.606;2023-10-31T12:34:14;99516.09;;;16.16;55.12
74561;BME280;62979;55.720;37.606;2023-10-31T12:36:42;99517.47;;;15.88;55.40
74561;BME280;62979;55.720;37.606;2023-10-31T12:39:11;99530.72;;;15.68;56.03
74561;BME280;62979;55.720;37.606;2023-10-31T12:41:40;99529.56;;;15.56;55.92
74561;BME280;62979;55.720;37.606;2023-10-31T12:44:08;99527.50;;;15.44;56.36
74561;BME280;62979;55.720;37.606;2023-10-31T12:46:39;99531.91;;;15.24;56.40
74561;BME280;62979;55.720;37.606;2023-10-31T12:49:11;99516.22;;;14.83;56.93
74561;BME280;62979;55.720;37.606;2023-10-31T12:51:38;99542.16;;;14.72;57.47
74561;BME280;62979;55.720;37.606;2023-10-31T12:54:27;99531.16;;;14.42;58.36
74561;BME280;62979;55.720;37.606;2023-10-31T12:56:59;99555.06;;;14.15;58.93
74561;BME280;62979;55.720;37.606;2023-10-31T12:59:27;99553.75;;;14.05;59.51